createdAt,value
2022-11-13T00:00:00.033Z,12.57
2022-11-13T00:04:02.882Z,12.57
2022-11-13T00:07:48.950Z,12.57
2022-11-13T00:11:35.239Z,12.57
2022-11-13T00:15:21.533Z,12.59
2022-11-13T00:19:07.463Z,12.62
2022-11-13T00:22:53.412Z,12.64
2022-11-13T00:26:40.042Z,12.66
2022-11-13T00:30:26.346Z,12.71
2022-11-13T00:34:41.488Z,12.76
2022-11-13T00:38:22.311Z,12.76
2022-11-13T00:42:08.450Z,12.73
2022-11-13T00:45:56.265Z,12.70
2022-11-13T00:49:42.156Z,12.67
2022-11-13T00:53:28.402Z,12.63
2022-11-13T00:57:14.450Z,12.60
2022-11-13T01:01:08.906Z,12.58
2022-11-13T01:04:55.154Z,12.58
2022-11-13T01:08:43.740Z,12.61
2022-11-13T01:12:29.751Z,12.63
2022-11-13T01:16:18.965Z,12.64
2022-11-13T01:20:06.482Z,12.68
2022-11-13T01:23:54.885Z,12.72
2022-11-13T01:27:41.051Z,12.76
2022-11-13T01:31:29.614Z,12.74
2022-11-13T01:35:15.197Z,12.72
2022-11-13T01:39:00.785Z,12.71
2022-11-13T01:42:46.230Z,12.72
2022-11-13T01:46:35.333Z,12.68
2022-11-13T01:50:21.437Z,12.63
2022-11-13T01:54:11.904Z,12.58
2022-11-13T01:57:58.245Z,12.58
2022-11-13T02:01:43.935Z,12.57
2022-11-13T02:05:29.781Z,12.58
2022-11-13T02:09:16.849Z,12.59
2022-11-13T02:13:03.460Z,12.60
2022-11-13T02:16:54.132Z,12.64
2022-11-13T02:20:48.383Z,12.67
2022-11-13T02:24:40.985Z,12.72
2022-11-13T02:28:29.175Z,12.75
2022-11-13T02:32:15.135Z,12.76
2022-11-13T02:36:01.543Z,12.76
2022-11-13T02:39:49.107Z,12.77
2022-11-13T02:43:35.304Z,12.76
2022-11-13T02:47:20.918Z,12.73
2022-11-13T02:51:07.487Z,12.68
2022-11-13T02:54:55.285Z,12.61
2022-11-13T02:58:40.938Z,12.52
2022-11-13T03:02:28.234Z,12.47
2022-11-13T03:06:14.274Z,12.42
2022-11-13T03:10:00.460Z,12.39
2022-11-13T03:13:46.406Z,12.38
2022-11-13T03:17:34.106Z,12.36
2022-11-13T03:21:19.952Z,12.36
2022-11-13T03:25:10.498Z,12.37
2022-11-13T03:28:58.811Z,12.36
2022-11-13T03:32:45.114Z,12.33
2022-11-13T03:36:31.370Z,12.29
2022-11-13T03:40:17.598Z,12.27
2022-11-13T03:44:03.576Z,12.36
2022-11-13T03:47:49.894Z,12.36
2022-11-13T03:51:36.233Z,12.38
2022-11-13T03:55:21.855Z,12.39
2022-11-13T03:59:08.068Z,12.38
2022-11-13T04:02:53.929Z,12.33
2022-11-13T04:06:40.233Z,12.26
2022-11-13T04:10:26.115Z,12.19
2022-11-13T04:14:12.131Z,12.15
2022-11-13T04:17:57.931Z,12.12
2022-11-13T04:21:43.885Z,12.11
2022-11-13T04:25:29.403Z,12.11
2022-11-13T04:29:15.813Z,12.11
2022-11-13T04:33:01.717Z,12.14
2022-11-13T04:36:46.884Z,12.16
2022-11-13T04:40:32.849Z,12.19
2022-11-13T04:44:18.680Z,12.27
2022-11-13T04:48:05.238Z,12.32
2022-11-13T04:51:51.236Z,12.37
2022-11-13T04:55:37.491Z,12.38
2022-11-13T04:59:23.341Z,12.37
2022-11-13T05:03:09.771Z,12.37
2022-11-13T05:06:55.895Z,12.36
2022-11-13T05:10:41.640Z,12.32
2022-11-13T05:14:27.372Z,12.24
2022-11-13T05:18:13.132Z,12.13
2022-11-13T05:21:59.156Z,12.07
2022-11-13T05:25:44.927Z,12.04
2022-11-13T05:29:31.156Z,12.05
2022-11-13T05:33:17.433Z,12.07
2022-11-13T05:37:03.404Z,12.05
2022-11-13T05:40:48.960Z,12.05
2022-11-13T05:44:35.034Z,12.10
2022-11-13T05:48:21.135Z,12.17
2022-11-13T05:52:06.828Z,12.20
2022-11-13T05:55:52.753Z,12.22
2022-11-13T05:59:39.236Z,12.27
2022-11-13T06:03:26.166Z,12.26
2022-11-13T06:07:11.913Z,12.23
2022-11-13T06:11:02.047Z,12.20
2022-11-13T06:14:48.204Z,12.20
2022-11-13T06:18:35.410Z,12.16
2022-11-13T06:22:21.533Z,12.09
2022-11-13T06:26:08.452Z,12.06
2022-11-13T06:29:53.779Z,12.03
2022-11-13T06:33:44.646Z,12.01
2022-11-13T06:37:34.493Z,12.05
2022-11-13T06:41:22.349Z,12.06
2022-11-13T06:45:08.662Z,12.12
2022-11-13T06:48:54.556Z,12.18
2022-11-13T06:52:39.763Z,12.18
2022-11-13T06:56:25.974Z,12.21
2022-11-13T07:00:14.161Z,12.27
2022-11-13T07:04:00.363Z,12.29
2022-11-13T07:07:45.632Z,12.28
2022-11-13T07:11:31.343Z,12.31
2022-11-13T07:15:17.382Z,12.31
2022-11-13T07:19:05.660Z,12.36
2022-11-13T07:22:51.059Z,12.39
2022-11-13T07:26:37.464Z,12.37
2022-11-13T07:30:24.014Z,12.35
2022-11-13T07:34:10.006Z,12.35
2022-11-13T07:38:00.106Z,12.35
2022-11-13T07:41:45.744Z,12.35
2022-11-13T07:45:31.968Z,12.35
2022-11-13T07:49:18.874Z,12.40
2022-11-13T07:53:06.515Z,12.45
2022-11-13T07:56:52.103Z,12.51
2022-11-13T08:00:38.603Z,12.55
2022-11-13T08:04:24.402Z,12.54
2022-11-13T08:08:13.122Z,12.57
2022-11-13T08:11:58.643Z,12.62
2022-11-13T08:15:44.233Z,12.67
2022-11-13T08:19:29.995Z,12.74
2022-11-13T08:23:15.477Z,12.79
2022-11-13T08:27:01.524Z,12.83
2022-11-13T08:30:48.310Z,12.79
2022-11-13T08:34:35.879Z,12.79
2022-11-13T08:38:22.797Z,12.75
2022-11-13T08:42:09.114Z,12.72
2022-11-13T08:45:54.655Z,12.70
2022-11-13T08:49:40.329Z,12.72
2022-11-13T08:53:26.797Z,12.72
2022-11-13T08:57:12.924Z,12.74
2022-11-13T09:01:05.597Z,12.76
2022-11-13T09:04:51.539Z,12.76
2022-11-13T09:08:38.818Z,12.77
2022-11-13T09:12:24.653Z,12.81
2022-11-13T09:16:11.139Z,12.81
2022-11-13T09:20:02.192Z,12.82
2022-11-13T09:23:49.791Z,12.87
2022-11-13T09:27:35.458Z,12.97
2022-11-13T09:31:23.398Z,13.06
2022-11-13T09:35:10.142Z,13.09
2022-11-13T09:38:56.177Z,13.11
2022-11-13T09:42:43.714Z,13.12
2022-11-13T09:46:42.002Z,13.17
2022-11-13T09:50:30.691Z,13.18
2022-11-13T09:54:17.462Z,13.15
2022-11-13T09:58:12.238Z,13.14
2022-11-13T10:02:05.007Z,13.11
2022-11-13T10:05:58.865Z,13.12
2022-11-13T10:10:00.921Z,13.12
2022-11-13T10:13:53.963Z,13.13
2022-11-13T10:17:44.019Z,13.10
2022-11-13T10:21:35.018Z,13.05
2022-11-13T10:25:22.917Z,13.01
2022-11-13T10:29:15.336Z,12.95
2022-11-13T10:33:09.440Z,12.89
2022-11-13T10:37:21.491Z,12.83
2022-11-13T10:41:14.159Z,12.77
2022-11-13T10:45:01.679Z,12.73
2022-11-13T10:48:48.947Z,12.73
2022-11-13T10:52:38.541Z,12.73
2022-11-13T10:56:31.630Z,12.73
2022-11-13T11:00:26.836Z,12.73
2022-11-13T11:04:21.376Z,12.72
2022-11-13T11:08:12.351Z,12.74
2022-11-13T11:12:18.726Z,12.73
2022-11-13T11:16:44.693Z,12.75
2022-11-13T11:20:46.788Z,12.74
2022-11-13T11:24:36.753Z,12.69
2022-11-13T11:28:31.924Z,12.61
2022-11-13T11:32:24.826Z,12.53
2022-11-13T11:36:23.597Z,12.48
2022-11-13T11:40:21.618Z,12.48
2022-11-13T11:44:16.994Z,12.50
2022-11-13T11:48:06.468Z,12.49
2022-11-13T11:52:05.607Z,12.48
2022-11-13T11:56:19.909Z,12.51
2022-11-13T12:00:12.523Z,12.56
2022-11-13T12:04:16.248Z,12.60
2022-11-13T12:08:13.486Z,12.62
2022-11-13T12:12:11.573Z,12.61
2022-11-13T12:16:04.444Z,12.65
2022-11-13T12:20:03.963Z,12.72
2022-11-13T12:24:07.516Z,12.78
2022-11-13T12:28:00.169Z,12.77
2022-11-13T12:31:59.429Z,12.75
2022-11-13T12:36:13.529Z,12.69
2022-11-13T12:40:07.576Z,12.69
2022-11-13T12:44:24.598Z,12.67
2022-11-13T12:48:29.201Z,12.65
2022-11-13T12:52:24.660Z,12.66
2022-11-13T12:56:19.188Z,12.66
2022-11-13T13:00:26.855Z,12.70
2022-11-13T13:04:46.653Z,12.72
2022-11-13T13:08:58.519Z,12.77
2022-11-13T13:12:57.081Z,12.80
2022-11-13T13:16:51.495Z,12.82
2022-11-13T13:20:40.461Z,12.90
2022-11-13T13:24:38.231Z,12.90
2022-11-13T13:28:25.797Z,12.89
2022-11-13T13:32:21.388Z,12.84
2022-11-13T13:36:18.230Z,12.76
2022-11-13T13:40:22.277Z,12.68
2022-11-13T13:50:40.572Z,12.48
2022-11-13T14:05:35.729Z,12.38
2022-11-13T14:09:24.086Z,12.35
2022-11-13T14:13:17.023Z,12.35
2022-11-13T14:17:04.175Z,12.34
2022-11-13T14:20:55.908Z,12.33
2022-11-13T14:24:52.060Z,12.33
2022-11-13T14:28:53.597Z,12.32
2022-11-13T14:32:47.278Z,12.28
2022-11-13T14:36:37.412Z,12.25
2022-11-13T14:40:26.617Z,12.20
2022-11-13T14:44:30.746Z,12.18
2022-11-13T14:48:24.580Z,12.16
2022-11-13T14:52:24.483Z,12.18
2022-11-13T14:56:13.472Z,12.19
2022-11-13T15:00:13.394Z,12.20
2022-11-13T15:04:03.824Z,12.16
2022-11-13T15:07:51.561Z,12.20
2022-11-13T15:11:40.598Z,12.18
2022-11-13T15:15:36.387Z,12.14
2022-11-13T15:19:27.229Z,12.13
2022-11-13T15:23:17.664Z,12.12
2022-11-13T15:27:07.209Z,12.07
2022-11-13T15:30:54.577Z,12.07
2022-11-13T15:34:44.694Z,12.05
2022-11-13T15:38:32.575Z,12.03
2022-11-13T15:42:23.972Z,12.00
2022-11-13T15:46:16.447Z,11.95
2022-11-13T15:50:15.287Z,11.87
2022-11-13T15:54:03.981Z,11.82
2022-11-13T15:57:54.045Z,11.76
2022-11-13T16:01:42.533Z,11.71
2022-11-13T16:05:33.905Z,11.68
2022-11-13T16:09:21.974Z,11.66
2022-11-13T16:13:13.617Z,11.67
2022-11-13T16:17:00.484Z,11.71
2022-11-13T16:20:47.860Z,11.72
2022-11-13T16:24:34.274Z,11.71
2022-11-13T16:28:23.062Z,11.72
2022-11-13T16:32:11.618Z,11.70
2022-11-13T16:36:06.705Z,11.68
2022-11-13T16:40:00.329Z,11.65
2022-11-13T16:43:52.791Z,11.56
2022-11-13T16:47:42.797Z,11.45
2022-11-13T16:51:31.429Z,11.42
2022-11-13T16:55:20.016Z,11.39
2022-11-13T16:59:14.066Z,11.37
2022-11-13T17:03:04.728Z,11.36
2022-11-13T17:06:56.567Z,11.38
2022-11-13T17:10:44.707Z,11.39
2022-11-13T17:14:30.820Z,11.40
2022-11-13T17:18:17.327Z,11.42
2022-11-13T17:22:04.156Z,11.39
2022-11-13T17:25:52.199Z,11.40
2022-11-13T17:29:40.263Z,11.41
2022-11-13T17:33:26.642Z,11.43
2022-11-13T17:37:13.469Z,11.45
2022-11-13T17:41:05.977Z,11.43
2022-11-13T17:44:51.859Z,11.44
2022-11-13T17:48:41.651Z,11.44
2022-11-13T17:52:28.099Z,11.42
2022-11-13T17:56:16.616Z,11.42
2022-11-13T18:00:04.211Z,11.40
2022-11-13T18:03:55.568Z,11.42
2022-11-13T18:07:41.511Z,11.41
2022-11-13T18:11:29.989Z,11.39
2022-11-13T18:15:17.296Z,11.37
2022-11-13T18:19:07.072Z,11.39
2022-11-13T18:22:53.922Z,11.45
2022-11-13T18:26:40.414Z,11.51
2022-11-13T18:30:26.405Z,11.54
2022-11-13T18:34:16.996Z,11.57
2022-11-13T18:38:05.807Z,11.53
2022-11-13T18:41:52.297Z,11.48
2022-11-13T18:45:40.699Z,11.40
2022-11-13T18:49:27.340Z,11.35
2022-11-13T18:53:15.317Z,11.30
2022-11-13T18:57:03.849Z,11.24
2022-11-13T19:00:50.558Z,11.16
2022-11-13T19:04:38.401Z,11.11
2022-11-13T19:08:25.954Z,11.11
2022-11-13T19:12:12.931Z,11.10
2022-11-13T19:15:59.751Z,11.12
2022-11-13T19:19:47.922Z,11.17
2022-11-13T19:23:37.539Z,11.21
2022-11-13T19:27:25.485Z,11.26
2022-11-13T19:31:19.154Z,11.28
2022-11-13T19:35:08.109Z,11.25
2022-11-13T19:38:57.846Z,11.21
2022-11-13T19:42:45.516Z,11.11
2022-11-13T19:46:34.384Z,11.10
2022-11-13T19:50:24.730Z,11.06
2022-11-13T19:54:14.270Z,10.98
2022-11-13T19:58:02.530Z,10.88
2022-11-13T20:01:48.755Z,10.85
2022-11-13T20:05:34.935Z,10.84
2022-11-13T20:09:20.933Z,10.83
2022-11-13T20:13:07.535Z,10.84
2022-11-13T20:16:56.194Z,10.84
2022-11-13T20:20:54.430Z,10.86
2022-11-13T20:24:42.827Z,10.88
2022-11-13T20:28:33.000Z,10.83
2022-11-13T20:32:20.140Z,10.77
2022-11-13T20:36:12.714Z,10.78
2022-11-13T20:40:00.878Z,10.77
2022-11-13T20:43:56.316Z,10.75
2022-11-13T20:47:49.784Z,10.69
2022-11-13T20:51:36.593Z,10.64
2022-11-13T20:55:24.239Z,10.58
2022-11-13T20:59:11.037Z,10.53
2022-11-13T21:03:07.903Z,10.46
2022-11-13T21:06:55.671Z,10.35
2022-11-13T21:10:42.129Z,10.28
2022-11-13T21:14:29.248Z,10.24
2022-11-13T21:18:21.008Z,10.18
2022-11-13T21:22:13.397Z,10.12
2022-11-13T21:26:08.279Z,10.08
2022-11-13T21:29:58.251Z,10.10
2022-11-13T21:33:51.087Z,10.09
2022-11-13T21:37:38.010Z,10.11
2022-11-13T21:41:28.445Z,10.11
2022-11-13T21:45:25.886Z,10.11
2022-11-13T21:49:14.643Z,10.18
2022-11-13T21:53:01.152Z,10.21
2022-11-13T21:56:48.402Z,10.24
2022-11-13T22:00:34.452Z,10.25
2022-11-13T22:04:21.378Z,10.24
2022-11-13T22:08:08.010Z,10.17
2022-11-13T22:11:53.599Z,10.18
2022-11-13T22:15:39.719Z,10.15
2022-11-13T22:19:28.419Z,10.09
2022-11-13T22:23:19.597Z,10.03
2022-11-13T22:27:05.532Z,9.97
2022-11-13T22:30:52.438Z,9.94
2022-11-13T22:34:43.169Z,9.93
2022-11-13T22:38:35.375Z,9.95
2022-11-13T22:42:21.686Z,9.96
2022-11-13T22:46:10.242Z,10.00
2022-11-13T22:49:58.606Z,10.03
2022-11-13T22:53:50.285Z,10.04
2022-11-13T22:57:36.579Z,10.06
2022-11-13T23:01:25.291Z,10.11
2022-11-13T23:05:12.209Z,10.12
2022-11-13T23:08:59.766Z,10.07
2022-11-13T23:12:45.999Z,10.01
2022-11-13T23:16:32.647Z,9.97
2022-11-13T23:20:19.491Z,9.95
2022-11-13T23:24:06.606Z,9.90
2022-11-13T23:27:53.628Z,9.83
2022-11-13T23:31:39.708Z,9.81
2022-11-13T23:35:27.957Z,9.79
2022-11-13T23:39:15.812Z,9.77
2022-11-13T23:43:04.394Z,9.78
2022-11-13T23:46:50.578Z,9.81
2022-11-13T23:50:37.973Z,9.82
2022-11-13T23:54:25.235Z,9.85
2022-11-13T23:58:16.720Z,9.82
